Latest Weather Observations for Kilmore Gap

IDV60801

Issued at 12:02 pm EDT Tuesday 27 January 2015 (issued every 30 minutes, with the page automatically refreshed every 10 minutes)

About weather observations | Map of weather stations | Latest weather observations for VIC | Other Formats
Station Details ID: 088162 Name: KILMORE GAP Lat: -37.38 Lon: 144.97 Height: 527.8 m
Data from the previous 72 hours. | See also: Recent months at Kilmore Gap
Date/Time
EDT
Temp
°C
App
Temp
°C
Dew
Point
Rel
Hum
%
Delta-T
°C
Wind Press
QNH
hPa
Press
MSL
hPa
Rain
since 9 am
mm
Dir
 
Spd
km/h
Gust
km/h
Spd
kts
Gust
kts
27/12:00pm 16.0 10.0 7.0 55 4.6 S 28 48 15 26 1016.4 1014.7 0.0
27/11:30am 16.5 10.1 6.9 53 4.9 S 30 46 16 25 1016.6 - 0.0
27/11:09am 16.5 10.5 7.2 54 4.8 SSE 28 46 15 25 1016.4 - 0.0
27/11:00am 16.2 9.5 7.4 56 4.5 S 32 44 17 24 1016.4 - 0.0
27/10:30am 15.0 9.0 7.1 59 4.0 SSE 28 46 15 25 1016.6 - 0.0
27/10:06am 13.9 7.5 7.0 63 3.5 SSE 30 48 16 26 1016.4 - 0.0
27/10:00am 14.3 7.9 7.1 62 3.6 S 30 39 16 21 1016.4 - 0.0
27/09:30am 13.7 8.0 6.6 62 3.5 SSE 26 39 14 21 1016.6 - 0.0
27/09:09am 13.2 7.0 6.3 63 3.4 SSE 28 46 15 25 1016.4 - 0.0
27/09:00am 12.8 6.4 7.0 68 2.9 S 30 39 16 21 1016.6 1014.8 0.0
27/08:30am 11.7 5.7 7.0 73 2.3 SSE 28 44 15 24 1016.3 - 0.0
27/08:00am 10.7 4.8 7.4 80 1.6 S 28 37 15 20 1016.2 - 0.0
27/07:30am 9.7 4.5 7.1 84 1.3 S 24 33 13 18 1015.8 - 0.0
27/07:00am 8.7 3.0 6.5 86 1.0 S 26 35 14 19 1015.6 - 0.0
27/06:30am 8.1 2.3 6.2 88 0.9 S 26 35 14 19 1015.4 - 0.0
27/06:00am 8.0 2.2 6.1 88 0.9 S 26 37 14 20 1015.2 1013.4 0.0
27/05:30am 8.0 1.8 6.0 87 0.9 S 28 35 15 19 1015.1 - 0.0
27/05:00am 7.9 1.6 5.7 86 1.0 S 28 35 15 19 1015.0 - 0.0
27/04:30am 8.0 2.1 5.6 85 1.1 S 26 35 14 19 1015.0 - 0.0
27/04:00am 8.1 2.2 5.6 84 1.2 S 26 35 14 19 1015.0 - 0.0
27/03:30am 8.2 2.3 5.7 84 1.2 S 26 33 14 18 1015.3 - 0.0
27/03:00am 8.6 2.3 5.7 82 1.4 S 28 35 15 19 1015.4 1013.7 0.0
27/02:30am 9.0 2.7 5.6 79 1.6 S 28 35 15 19 1015.5 - 0.0
27/02:00am 9.6 2.9 5.6 76 1.9 S 30 41 16 22 1015.6 - 0.0
27/01:30am 9.6 3.6 5.4 75 2.0 SSE 26 37 14 20 1015.9 - 0.0
27/01:00am 9.7 3.6 4.9 72 2.2 SSE 26 35 14 19 1016.0 - 0.0
27/12:30am 10.2 3.7 4.8 69 2.5 S 28 41 15 22 1016.1 - 0.0
27/12:00am 10.0 4.0 5.4 73 2.2 SSE 26 37 14 20 1016.3 1014.6 0.0
 
Date/Time
EDT
Temp
°C
App
Temp
°C
Dew
Point
Rel
Hum
%
Delta-T
°C
Wind Press
QNH
hPa
Press
MSL
hPa
Rain
since 9 am
mm
Dir
 
Spd
km/h
Gust
km/h
Spd
kts
Gust
kts
26/11:30pm 9.7 3.8 5.9 77 1.8 S 26 39 14 21 1016.4 - 0.0
26/11:00pm 10.0 4.2 6.2 77 1.8 SSE 26 37 14 20 1016.7 - 0.0
26/10:30pm 10.3 4.5 6.3 76 1.9 S 26 39 14 21 1016.8 - 0.0
26/10:00pm 10.4 4.4 5.2 70 2.4 S 26 35 14 19 1016.7 - 0.0
26/09:30pm 11.0 4.1 4.5 64 3.0 S 30 41 16 22 1016.6 - 0.0
26/09:00pm 11.3 5.3 5.4 67 2.8 S 26 39 14 21 1016.2 1014.5 0.0
26/08:30pm 12.1 5.3 5.3 63 3.2 S 30 41 16 22 1016.1 - 0.0
26/08:02pm 12.7 6.5 6.1 64 3.2 S 28 46 15 25 1015.8 - 0.0
26/08:00pm 12.8 6.2 5.9 63 3.3 S 30 46 16 25 1015.8 - 0.0
26/07:35pm 13.6 6.3 5.5 58 3.9 S 33 52 18 28 1015.5 - 0.0
26/07:30pm 13.7 6.0 5.3 57 4.1 S 35 48 19 26 1015.5 - 0.0
26/07:16pm 14.2 6.6 5.6 56 4.2 S 35 54 19 29 1015.1 - 0.0
26/07:00pm 14.3 5.8 5.1 54 4.4 S 39 54 21 29 1014.9 - 0.0
26/06:56pm 14.7 7.0 5.2 53 4.6 S 35 54 19 29 1014.9 - 0.0
26/06:30pm 14.9 7.7 5.7 54 4.5 S 33 44 18 24 1014.8 - 0.0
26/06:05pm 15.5 8.5 6.0 53 4.7 S 32 50 17 27 1014.8 - 0.0
26/06:00pm 16.2 9.9 5.8 50 5.2 S 28 44 15 24 1014.9 1013.1 0.0
26/05:37pm 15.2 8.5 5.7 53 4.7 S 30 48 16 26 1014.7 - 0.0
26/05:30pm 17.0 10.4 6.2 49 5.4 S 30 46 16 25 1014.9 - 0.0
26/05:11pm 16.2 9.5 5.8 50 5.2 S 30 50 16 27 1014.9 - 0.0
26/05:00pm 15.4 8.7 5.6 52 4.8 S 30 44 16 24 1015.0 - 0.0
26/04:34pm 17.0 10.1 6.5 50 5.3 S 32 50 17 27 1015.0 - 0.0
26/04:30pm 15.8 9.1 5.7 51 5.0 S 30 46 16 25 1015.1 - 0.0
26/04:00pm 15.5 8.5 6.0 53 4.7 SSE 32 50 17 27 1015.3 - 0.0
26/03:51pm 16.4 9.1 4.4 45 5.8 SSE 32 50 17 27 1015.1 - 0.0
26/03:30pm 17.4 11.8 5.4 45 6.0 S 24 41 13 22 1015.4 - 0.0
26/03:00pm 16.3 10.5 6.4 52 5.0 SSE 26 35 14 19 1015.6 1013.9 0.0
26/02:30pm 15.6 10.0 7.1 57 4.3 S 26 37 14 20 1015.6 - 0.0
26/02:00pm 13.6 7.9 6.9 64 3.3 S 26 37 14 20 1015.8 - 0.0
26/01:30pm 14.6 9.6 6.4 58 4.1 S 22 32 12 17 1016.1 - 0.0
26/01:00pm 16.2 11.4 5.8 50 5.2 S 20 33 11 18 1016.2 - 0.0
26/12:30pm 14.4 8.7 4.7 52 4.6 S 24 37 13 20 1016.3 - 0.0
26/12:00pm 16.1 11.2 7.1 55 4.6 S 22 32 12 17 1016.4 1014.7 0.0
26/11:30am 13.8 9.1 5.9 59 3.9 S 20 33 11 18 1016.7 - 0.0
26/11:00am 12.6 7.2 6.2 65 3.1 S 24 33 13 18 1016.8 - 0.0
26/10:30am 13.3 7.2 5.0 57 4.0 S 26 37 14 20 1016.6 - 0.0
26/10:00am 12.5 7.4 5.9 64 3.2 S 22 35 12 19 1016.3 - 0.0
26/09:30am 11.3 5.4 5.6 68 2.7 S 26 41 14 22 1016.3 - 0.0
26/09:00am 10.6 5.3 6.7 77 1.9 S 24 32 13 17 1016.3 1014.6 0.0
26/08:30am 9.7 6.2 7.0 83 1.3 SSW 15 20 8 11 1016.0 - 0.0
26/08:04am 8.7 4.7 6.7 87 1.0 SSW 17 22 9 12 1015.8 - 0.0
26/08:00am 8.5 4.5 6.5 87 1.0 S 17 22 9 12 1015.8 - 0.0
26/07:30am 7.4 4.1 6.3 93 0.5 S 13 17 7 9 1015.6 - 0.0
26/07:29am 7.3 4.0 6.2 93 0.5 S 13 17 7 9 1015.6 - 0.0
26/07:00am 6.2 2.7 5.5 95 0.3 SSE 13 19 7 10 1015.0 - 0.0
26/06:30am 6.7 2.8 5.3 91 0.6 S 15 22 8 12 1014.9 - 0.0
26/06:00am 7.0 2.4 5.6 91 0.6 SSW 19 24 10 13 1014.4 1012.7 0.0
26/05:30am 7.1 2.5 5.4 89 0.8 SW 19 22 10 12 1014.2 - 0.0
26/05:00am 7.3 2.1 5.3 87 0.9 SW 22 28 12 15 1013.8 - 0.0
26/04:30am 7.7 2.8 5.3 85 1.1 SSW 20 28 11 15 1013.9 - 0.0
26/04:00am 7.9 2.7 5.5 85 1.1 SSW 22 30 12 16 1013.8 - 0.0
26/03:30am 7.8 3.0 5.4 85 1.1 SSW 20 24 11 13 1013.7 - 0.0
26/03:00am 8.0 3.1 5.3 83 1.2 SSW 20 30 11 16 1013.6 1011.8 0.0
26/02:30am 8.3 2.7 5.2 81 1.4 SSW 24 30 13 16 1013.7 - 0.0
26/02:00am 8.6 3.8 5.4 80 1.5 SSW 20 26 11 14 1013.7 - 0.0
26/01:30am 8.8 4.2 5.4 79 1.6 SSW 19 24 10 13 1013.7 - 0.0
26/01:00am 8.7 4.4 5.3 79 1.6 SW 17 22 9 12 1013.8 - 0.0
26/12:30am 9.3 4.6 5.3 76 1.9 SSW 19 26 10 14 1013.7 - 0.0
26/12:00am 9.4 5.1 5.2 75 2.0 SSW 17 22 9 12 1013.7 1012.0 0.0
 
Date/Time
EDT
Temp
°C
App
Temp
°C
Dew
Point
Rel
Hum
%
Delta-T
°C
Wind Press
QNH
hPa
Press
MSL
hPa
Rain
since 9 am
mm
Dir
 
Spd
km/h
Gust
km/h
Spd
kts
Gust
kts
25/11:30pm 9.8 5.1 5.0 72 2.2 SSW 19 26 10 14 1013.7 - 0.0
25/11:00pm 10.3 5.9 4.7 68 2.6 SSW 17 26 9 14 1013.8 - 0.0
25/10:30pm 10.8 5.9 4.3 64 3.0 SSW 19 28 10 15 1013.7 - 0.0
25/10:00pm 11.3 5.8 4.1 61 3.3 SSW 22 37 12 20 1013.4 - 0.0
25/09:30pm 11.8 6.8 3.6 57 3.8 SSW 19 30 10 16 1013.2 - 0.0
25/09:00pm 12.4 6.7 3.1 53 4.2 SSW 22 39 12 21 1012.7 1010.9 0.0
25/08:30pm 13.3 7.6 3.1 50 4.7 SSW 22 39 12 21 1012.2 - 0.0
25/08:00pm 13.9 8.0 3.7 50 4.8 SSW 24 35 13 19 1011.9 - 0.0
25/07:30pm 14.2 8.4 4.2 51 4.7 SSW 24 35 13 19 1011.6 - 0.0
25/07:00pm 15.5 9.3 4.2 47 5.4 SSW 26 41 14 22 1011.0 - 0.0
25/06:39pm 15.9 9.4 4.9 48 5.3 SSW 28 50 15 27 1010.8 - 0.0
25/06:30pm 16.3 10.3 5.3 48 5.4 SSW 26 39 14 21 1010.7 - 0.0
25/06:00pm 16.3 10.5 4.4 45 5.8 SSW 24 39 13 21 1010.4 1008.7 0.0
25/05:30pm 18.0 11.4 2.3 35 7.4 SSW 26 41 14 22 1010.1 - 0.0
25/05:00pm 17.9 10.9 2.2 35 7.3 SW 28 50 15 27 1009.9 - 0.0
25/04:59pm 18.4 11.5 2.3 34 7.6 SW 28 50 15 27 1009.8 - 0.0
25/04:30pm 19.0 12.4 2.0 32 8.0 SW 26 43 14 23 1009.6 - 0.0
25/04:02pm 19.0 11.1 2.0 32 8.0 S 33 52 18 28 1009.1 - 0.0
25/04:00pm 18.5 11.9 1.9 33 7.7 SSW 26 41 14 22 1009.5 - 0.0
25/03:44pm 17.4 10.5 2.6 37 6.9 SW 28 50 15 27 1009.5 - 0.0
25/03:30pm 19.9 13.9 3.2 33 8.1 W 24 43 13 23 1009.3 - 0.0
25/03:00pm 19.3 13.6 3.1 34 7.8 SW 22 35 12 19 1009.4 1007.6 0.0
25/02:30pm 18.5 11.9 1.9 33 7.7 SW 26 43 14 23 1009.4 - 0.0
25/02:00pm 18.3 12.9 2.6 35 7.4 SW 20 41 11 22 1009.3 - 0.0
25/01:30pm 18.0 12.1 3.9 39 6.8 SW 24 35 13 19 1009.2 - 0.0
25/01:00pm 17.7 11.6 2.5 36 7.1 WSW 24 39 13 21 1009.1 - 0.0
25/12:30pm 16.9 10.7 2.1 37 6.8 SW 24 39 13 21 1009.2 - 0.0
25/12:00pm 16.7 11.1 3.4 41 6.3 SW 22 37 12 20 1008.9 1007.1 0.0
25/11:30am 16.5 10.7 4.2 44 5.9 SW 24 32 13 17 1008.8 - 0.0
25/11:00am 17.0 12.9 6.2 49 5.4 SSW 17 28 9 15 1008.8 - 0.0
25/10:30am 14.8 10.2 6.6 58 4.1 SW 20 32 11 17 1008.7 - 0.0
25/10:00am 14.3 10.0 7.1 62 3.6 SSW 19 28 10 15 1008.4 - 0.0
25/09:30am 14.1 9.3 7.4 64 3.4 SSW 22 32 12 17 1008.2 - 0.0
25/09:00am 13.2 8.5 7.6 69 2.8 SSW 22 35 12 19 1007.8 1006.0 0.0
25/08:30am 12.8 9.2 8.3 74 2.3 SSW 17 33 9 18 1007.6 - 0.0
25/08:00am 11.9 8.1 8.9 82 1.5 SW 19 28 10 15 1007.5 - 0.0
25/07:30am 11.1 8.0 10.3 95 0.4 SSW 17 24 9 13 1007.1 - 0.0
25/07:13am 11.2 7.2 10.4 95 0.4 SW 22 30 12 16 1006.6 - 0.0
25/07:00am 11.4 7.1 10.9 97 0.3 SW 24 33 13 18 1006.6 - 0.0
25/06:40am 11.7 8.5 11.1 96 0.3 SSW 19 24 10 13 1006.3 - 0.0
25/06:30am 11.9 8.6 11.0 94 0.5 SSW 19 28 10 15 1006.1 - 0.0
25/06:00am 13.3 9.4 9.4 77 2.1 SSW 20 35 11 19 1005.5 1003.7 0.0
25/05:30am 13.8 10.7 8.8 72 2.6 W 15 24 8 13 1005.0 - 0.0
25/05:00am 13.7 10.3 9.0 73 2.4 WNW 17 24 9 13 1005.0 - 0.0
25/04:30am 13.9 10.0 9.5 75 2.3 W 20 30 11 16 1004.8 - 0.0
25/04:00am 13.3 10.0 11.0 86 1.2 W 19 24 10 13 1004.5 - 0.0
25/03:30am 13.0 10.4 11.9 93 0.6 W 17 22 9 12 1003.9 - 0.0
25/03:00am 13.2 11.9 12.6 96 0.3 WSW 11 15 6 8 1004.1 1002.3 0.0
25/02:30am 12.6 11.4 11.7 94 0.5 WSW 9 13 5 7 1004.3 - 0.0
25/02:00am 13.0 10.7 11.7 92 0.7 SW 15 19 8 10 1004.7 - 0.0
25/01:30am 13.3 11.6 12.4 94 0.5 SW 13 15 7 8 1004.8 - 0.0
25/01:00am 13.4 11.8 12.9 97 0.3 WSW 13 17 7 9 1005.0 - 0.0
25/12:30am 13.7 12.2 13.2 97 0.3 SW 13 17 7 9 1005.0 - 0.0
25/12:00am 14.0 12.3 13.5 97 0.3 SW 15 19 8 10 1004.8 1002.9 0.0
 
Date/Time
EDT
Temp
°C
App
Temp
°C
Dew
Point
Rel
Hum
%
Delta-T
°C
Wind Press
QNH
hPa
Press
MSL
hPa
Rain
since 9 am
mm
Dir
 
Spd
km/h
Gust
km/h
Spd
kts
Gust
kts
24/11:30pm 14.2 12.5 13.6 96 0.3 SW 15 19 8 10 1005.1 - 0.0
24/11:00pm 14.6 12.5 13.6 94 0.6 SW 17 20 9 11 1005.5 - 0.0
24/10:30pm 15.3 13.6 13.7 90 0.9 SSW 15 20 8 11 1005.3 - 0.0
24/10:00pm 15.9 13.8 12.5 80 1.9 SSW 15 22 8 12 1005.2 - 0.0
24/09:30pm 16.9 13.7 12.0 73 2.8 SW 20 28 11 15 1004.9 - 0.0
24/09:00pm 17.6 15.3 11.6 68 3.4 SSW 15 20 8 11 1004.6 1002.7 0.0
24/08:30pm 18.6 16.1 11.2 62 4.1 S 15 20 8 11 1004.1 - 0.0
24/08:00pm 20.5 18.1 12.5 60 4.6 S 17 24 9 13 1003.8 - 0.0
24/07:30pm 22.6 19.9 12.8 54 5.7 S 19 24 10 13 1003.6 - 0.0
24/07:00pm 25.1 21.7 11.3 42 8.0 S 20 30 11 16 1003.1 - 0.0
24/06:30pm 28.8 20.9 -1.3 14 14.3 W 30 41 16 22 1002.7 - 0.0
24/06:00pm 29.3 22.9 0.9 16 14.1 NW 24 35 13 19 1002.8 1000.9 0.0
24/05:30pm 29.4 22.5 0.1 15 14.3 NW 26 39 14 21 1002.8 - 0.0
24/05:25pm 29.9 22.8 1.4 16 14.3 NW 28 46 15 25 1002.9 - 0.0
24/05:00pm 29.8 21.0 1.3 16 14.3 NW 37 50 20 27 1002.7 - 0.0
24/04:43pm 30.1 22.3 1.5 16 14.4 NW 32 52 17 28 1002.9 - 0.0
24/04:30pm 30.0 22.8 6.0 22 13.0 NW 33 50 18 27 1003.0 - 0.0
24/04:12pm 29.9 22.9 8.3 26 12.1 NW 35 54 19 29 1003.3 - 0.0
24/04:00pm 30.0 23.2 7.8 25 12.4 NNW 33 50 18 27 1003.3 - 0.0
24/03:30pm 30.3 23.0 8.7 26 12.3 NW 37 56 20 30 1003.7 - 0.0
24/03:00pm 29.2 22.3 8.8 28 11.6 NW 35 56 19 30 1004.1 1002.3 0.0
24/02:40pm 29.3 22.0 8.9 28 11.6 NW 37 56 20 30 1004.2 - 0.0
24/02:30pm 29.3 21.7 8.9 28 11.6 NNW 39 52 21 28 1004.2 - 0.0
24/02:01pm 28.1 19.6 6.8 26 11.6 NW 41 59 22 32 1004.7 - 0.0
24/02:00pm 28.0 19.1 6.7 26 11.6 NW 43 59 23 32 1004.7 - 0.0
24/01:30pm 28.8 22.6 6.2 24 12.2 NW 28 46 15 25 1005.1 - 0.0
24/01:13pm 29.5 23.3 6.2 23 12.6 NNW 28 46 15 25 1005.3 - 0.0
24/01:00pm 28.4 21.6 5.3 23 12.3 NNW 30 43 16 23 1005.5 - 0.0
24/12:30pm 27.3 22.1 5.6 25 11.5 NW 22 39 12 21 1005.7 - 0.0

Other Formats:

Comma delimited format used in spreadsheet applications
http://www.bom.gov.au/fwo/IDV60801/IDV60801.94860.axf

JavaScript Object Notation format (JSON) in row-major order
http://www.bom.gov.au/fwo/IDV60801/IDV60801.94860.json